Saugatuck, Connecticut
Current Conditions -  °F | °C
As of 2:52 PM on Monday 24 Nov 2014 (Local Time) from KBDR Reporting Station
Overcast Overcast  
Wind Chill: 59°   Ceiling: 600
Heat Index: 59°   Visibility: 10mi
Dew Point: 57°   Wind: 20mph
Humidity: 93%   Direction: 190°S
Pressure: 29.6"   Gusts: NA
Location:  41.1454°N, 73.3462°W
Report Text: KBDR 241952Z 19017KT 10SM OVC006 15/14 A2960 RMK AO2 SLP023 T01500139
Loading
Personal Weather Stations






























Interactive Weather Map New forecast layout! Learn more

10-Day Weather Forecast

Advertisements
Track Severe Weather on mobile